Time;durP1;ratioP1;P1;durP2;ratioP2;P2;SDS_P1;SDS_P2;PMS_P1;PMS_P2;Temp;Humidity;BMP_temperature;BMP_pressure;BME280_temperature;BME280_humidity;BME280_pressure;Samples;Min_cycle;Max_cycle;Signal;HPM_P1;HPM_P2
2022/03/14 00:02:05;;;;;;;20.55;13.52;;;;;;;;;;4929639;29;20048;-77
2022/03/14 00:04:37;;;;;;;20.77;12.85;;;;;;;;;;4928764;29;20047;-79
2022/03/14 00:07:06;;;;;;;25.83;13.32;;;;;;;;;;4933240;29;20068;-78
2022/03/14 00:09:34;;;;;;;23.08;13.80;;;;;;;;;;4934833;29;20119;-79
2022/03/14 00:12:01;;;;;;;20.40;13.35;;;;;;;;;;4931995;29;20047;-78
2022/03/14 00:14:28;;;;;;;22.75;14.02;;;;;;;;;;4929181;29;20048;-79
2022/03/14 00:16:56;;;;;;;20.17;13.13;;;;;;;;;;4928799;29;20052;-78
2022/03/14 00:19:23;;;;;;;20.60;13.23;;;;;;;;;;4929028;29;20043;-78
2022/03/14 00:21:50;;;;;;;22.10;13.55;;;;;;;;;;4939435;29;20052;-78
2022/03/14 00:24:18;;;;;;;23.85;13.25;;;;;;;;;;4935630;29;20111;-77
2022/03/14 00:26:48;;;;;;;21.38;12.65;;;;;;;;;;4933840;29;20088;-77
2022/03/14 00:29:15;;;;;;;20.75;13.73;;;;;;;;;;4934755;29;20048;-77
2022/03/14 00:31:42;;;;;;;22.52;13.90;;;;;;;;;;4933275;29;20389;-78
2022/03/14 00:34:09;;;;;;;19.83;13.63;;;;;;;;;;4931860;29;20054;-78
2022/03/14 00:36:36;;;;;;;21.73;14.43;;;;;;;;;;4932097;29;20056;-79
2022/03/14 00:39:04;;;;;;;23.90;13.98;;;;;;;;;;4932796;29;20059;-78
2022/03/14 00:41:32;;;;;;;20.55;12.95;;;;;;;;;;4926405;29;20056;-78
2022/03/14 00:43:58;;;;;;;23.15;14.82;;;;;;;;;;4923048;29;20048;-76
2022/03/14 00:46:25;;;;;;;19.90;13.80;;;;;;;;;;4921508;29;20051;-76
2022/03/14 00:48:52;;;;;;;21.55;13.75;;;;;;;;;;4919142;29;20067;-76
2022/03/14 00:51:22;;;;;;;25.38;14.60;;;;;;;;;;4919148;29;20116;-76
2022/03/14 00:53:49;;;;;;;23.60;14.40;;;;;;;;;;4918337;29;20087;-77
2022/03/14 00:56:19;;;;;;;20.40;12.35;;;;;;;;;;4917722;29;20048;-78
2022/03/14 00:58:48;;;;;;;23.92;14.73;;;;;;;;;;4918915;29;20499;-77
2022/03/14 01:01:15;;;;;;;23.77;14.48;;;;;;;;;;4918162;29;20067;-77
2022/03/14 01:03:42;;;;;;;22.60;14.40;;;;;;;;;;4917620;29;20052;-78
2022/03/14 01:06:08;;;;;;;30.30;14.57;;;;;;;;;;4917259;29;20055;-78
2022/03/14 01:08:35;;;;;;;23.65;14.55;;;;;;;;;;4917884;29;20103;-78
2022/03/14 01:11:02;;;;;;;21.92;14.38;;;;;;;;;;4916918;29;20048;-76
2022/03/14 01:13:29;;;;;;;24.35;14.27;;;;;;;;;;4916724;29;20563;-76
2022/03/14 01:15:59;;;;;;;24.88;14.38;;;;;;;;;;4915932;29;20587;-76
2022/03/14 01:18:26;;;;;;;22.48;13.77;;;;;;;;;;4916766;29;20048;-76
2022/03/14 01:20:53;;;;;;;19.50;13.63;;;;;;;;;;4917378;29;20044;-78
2022/03/14 01:23:20;;;;;;;22.42;13.10;;;;;;;;;;4918322;29;20052;-77
2022/03/14 01:25:47;;;;;;;22.52;13.25;;;;;;;;;;4926229;29;20056;-77
2022/03/14 01:28:14;;;;;;;21.42;14.05;;;;;;;;;;4929529;29;20075;-78
2022/03/14 01:30:44;;;;;;;21.83;14.00;;;;;;;;;;4929775;29;20437;-79
2022/03/14 01:33:12;;;;;;;21.75;14.13;;;;;;;;;;4925670;29;20124;-79
2022/03/14 01:35:40;;;;;;;23.45;14.98;;;;;;;;;;4924611;29;20197;-79
2022/03/14 01:38:07;;;;;;;24.83;14.60;;;;;;;;;;4923483;29;20420;-79
2022/03/14 01:40:34;;;;;;;25.15;15.70;;;;;;;;;;4922282;29;20048;-78
2022/03/14 01:43:01;;;;;;;28.48;15.50;;;;;;;;;;4924468;29;20052;-79
2022/03/14 01:45:28;;;;;;;26.55;15.23;;;;;;;;;;4936433;29;20048;-79
2022/03/14 01:47:55;;;;;;;27.83;16.23;;;;;;;;;;4937766;29;20048;-79
2022/03/14 01:50:24;;;;;;;27.77;16.30;;;;;;;;;;4937117;29;20048;-78
2022/03/14 01:52:51;;;;;;;27.15;15.43;;;;;;;;;;4937674;29;20067;-77
2022/03/14 01:55:18;;;;;;;26.88;16.02;;;;;;;;;;4935734;29;20047;-79
2022/03/14 01:57:45;;;;;;;25.98;15.82;;;;;;;;;;4937448;29;20056;-78
2022/03/14 02:00:14;;;;;;;25.95;15.52;;;;;;;;;;4936555;29;20063;-77
2022/03/14 02:02:40;;;;;;;25.00;15.55;;;;;;;;;;4939246;29;20043;-77
2022/03/14 02:05:08;;;;;;;30.52;15.57;;;;;;;;;;4939428;29;20063;-76
2022/03/14 02:07:37;;;;;;;26.85;14.55;;;;;;;;;;4939365;29;20071;-76
2022/03/14 02:10:04;;;;;;;23.92;13.98;;;;;;;;;;4939028;29;20115;-77
2022/03/14 02:12:31;;;;;;;25.80;14.60;;;;;;;;;;4939070;29;20055;-79
2022/03/14 02:14:58;;;;;;;25.17;15.18;;;;;;;;;;4938973;29;20422;-76
2022/03/14 02:17:25;;;;;;;28.13;14.55;;;;;;;;;;4938774;29;20396;-77
2022/03/14 02:19:52;;;;;;;20.77;13.50;;;;;;;;;;4938694;29;20055;-75
2022/03/14 02:22:21;;;;;;;27.90;16.23;;;;;;;;;;4938371;29;20468;-76
2022/03/14 02:24:48;;;;;;;22.38;13.65;;;;;;;;;;4938769;29;20051;-77
2022/03/14 02:27:16;;;;;;;21.67;13.15;;;;;;;;;;4939278;29;20099;-77
2022/03/14 02:29:43;;;;;;;21.70;13.27;;;;;;;;;;4938894;29;20055;-78
2022/03/14 02:32:12;;;;;;;20.98;13.15;;;;;;;;;;4938964;29;20123;-78
2022/03/14 02:34:39;;;;;;;21.58;13.10;;;;;;;;;;4939021;29;20499;-79
2022/03/14 02:37:06;;;;;;;24.05;13.57;;;;;;;;;;4939114;29;20147;-79
2022/03/14 02:39:37;;;;;;;24.35;13.43;;;;;;;;;;4940000;29;20126;-77
2022/03/14 02:42:05;;;;;;;20.20;12.02;;;;;;;;;;4939402;29;20554;-78
2022/03/14 02:44:32;;;;;;;18.85;12.45;;;;;;;;;;4932423;29;20044;-78
2022/03/14 02:46:59;;;;;;;19.40;12.30;;;;;;;;;;4918930;29;20473;-78
2022/03/14 02:49:26;;;;;;;20.45;13.32;;;;;;;;;;4920183;29;20064;-78
2022/03/14 02:51:52;;;;;;;20.77;12.82;;;;;;;;;;4920124;29;20063;-79
2022/03/14 02:54:19;;;;;;;18.13;11.50;;;;;;;;;;4919862;29;20504;-77
2022/03/14 02:56:48;;;;;;;20.23;11.52;;;;;;;;;;4919291;29;20056;-78
2022/03/14 02:59:14;;;;;;;21.67;12.10;;;;;;;;;;4920347;29;20143;-78
2022/03/14 03:01:41;;;;;;;18.73;10.68;;;;;;;;;;4919982;29;20063;-79
2022/03/14 03:04:10;;;;;;;17.70;11.23;;;;;;;;;;4920909;29;20058;-79
2022/03/14 03:06:36;;;;;;;16.38;10.23;;;;;;;;;;4920576;29;20048;-80
2022/03/14 03:09:04;;;;;;;20.40;9.98;;;;;;;;;;4920411;29;20055;-78
2022/03/14 03:11:32;;;;;;;19.00;9.93;;;;;;;;;;4920224;29;20151;-79
2022/03/14 03:14:01;;;;;;;19.63;10.27;;;;;;;;;;4922072;29;20044;-78
2022/03/14 03:16:28;;;;;;;16.98;10.20;;;;;;;;;;4922902;29;20103;-78
2022/03/14 03:18:55;;;;;;;17.20;9.82;;;;;;;;;;4923026;29;20463;-79
2022/03/14 03:21:22;;;;;;;17.15;9.48;;;;;;;;;;4921631;29;20099;-78
2022/03/14 03:23:49;;;;;;;14.45;8.75;;;;;;;;;;4921846;29;20072;-78
2022/03/14 03:26:17;;;;;;;16.83;8.98;;;;;;;;;;4921170;29;20455;-78
2022/03/14 03:28:44;;;;;;;16.15;9.50;;;;;;;;;;4920958;29;20052;-79
2022/03/14 03:31:16;;;;;;;18.25;9.43;;;;;;;;;;4921092;29;20048;-78
2022/03/14 03:33:44;;;;;;;17.05;9.30;;;;;;;;;;4921867;29;20118;-79
2022/03/14 03:36:11;;;;;;;15.45;8.63;;;;;;;;;;4920704;29;20056;-78
2022/03/14 03:38:38;;;;;;;15.45;8.93;;;;;;;;;;4922593;29;20051;-79
2022/03/14 03:41:05;;;;;;;17.65;9.48;;;;;;;;;;4924278;29;20048;-78
2022/03/14 03:43:32;;;;;;;18.83;10.38;;;;;;;;;;4922926;29;20091;-78
2022/03/14 03:46:00;;;;;;;22.92;10.23;;;;;;;;;;4941666;29;20043;-78
2022/03/14 03:48:28;;;;;;;19.65;9.38;;;;;;;;;;4942850;29;20055;-78
2022/03/14 03:50:55;;;;;;;17.08;9.27;;;;;;;;;;4939602;29;20102;-79
2022/03/14 03:53:22;;;;;;;20.95;10.50;;;;;;;;;;4939113;29;20056;-78
2022/03/14 03:58:16;;;;;;;21.73;10.70;;;;;;;;;;4982145;28;20050;-61
2022/03/14 04:00:43;;;;;;;19.75;10.00;;;;;;;;;;4983003;28;20514;-60
2022/03/14 04:03:10;;;;;;;19.08;9.80;;;;;;;;;;4984251;28;20043;-60
2022/03/14 04:05:41;;;;;;;19.05;10.45;;;;;;;;;;4983943;28;20046;-60
2022/03/14 04:08:11;;;;;;;19.48;10.98;;;;;;;;;;4983744;28;20074;-63
2022/03/14 04:10:38;;;;;;;21.33;10.45;;;;;;;;;;4983195;28;20063;-60
2022/03/14 04:13:06;;;;;;;22.98;11.77;;;;;;;;;;4983426;28;20058;-59
2022/03/14 04:15:39;;;;;;;23.77;11.70;;;;;;;;;;4982946;28;20102;-60
2022/03/14 04:18:07;;;;;;;23.35;12.60;;;;;;;;;;4983255;28;20062;-61
2022/03/14 04:20:34;;;;;;;24.00;13.80;;;;;;;;;;4982655;28;20054;-60
2022/03/14 04:23:02;;;;;;;31.77;13.85;;;;;;;;;;4982427;28;20058;-60
2022/03/14 04:25:29;;;;;;;26.48;13.70;;;;;;;;;;4983344;28;20129;-60
2022/03/14 04:27:56;;;;;;;26.67;13.98;;;;;;;;;;4983123;28;20051;-60
2022/03/14 04:30:24;;;;;;;23.90;13.43;;;;;;;;;;4982606;28;20051;-59
2022/03/14 04:32:51;;;;;;;25.83;15.25;;;;;;;;;;4983282;28;20117;-60
2022/03/14 04:35:18;;;;;;;26.08;14.45;;;;;;;;;;4982450;28;20411;-60
2022/03/14 04:37:45;;;;;;;27.05;14.75;;;;;;;;;;4982861;28;20477;-60
2022/03/14 04:40:14;;;;;;;23.67;13.95;;;;;;;;;;4982293;28;20058;-60
2022/03/14 04:42:41;;;;;;;26.67;13.98;;;;;;;;;;4982587;28;20055;-59
2022/03/14 04:45:10;;;;;;;27.63;14.73;;;;;;;;;;4982241;28;20109;-60
2022/03/14 04:47:37;;;;;;;28.45;13.95;;;;;;;;;;4981676;28;20070;-60
2022/03/14 04:50:04;;;;;;;28.40;15.18;;;;;;;;;;4982358;28;20130;-60
2022/03/14 04:52:31;;;;;;;31.88;14.95;;;;;;;;;;4983202;28;20054;-60
2022/03/14 04:54:59;;;;;;;29.40;15.27;;;;;;;;;;4982187;28;20057;-58
2022/03/14 04:57:28;;;;;;;26.52;14.82;;;;;;;;;;4981839;28;20067;-59
2022/03/14 04:59:55;;;;;;;26.00;13.85;;;;;;;;;;4982296;28;20114;-60
2022/03/14 05:02:23;;;;;;;24.88;13.98;;;;;;;;;;4981909;28;20055;-59
2022/03/14 05:04:50;;;;;;;23.75;13.40;;;;;;;;;;4982801;28;20054;-59
2022/03/14 05:07:17;;;;;;;27.17;14.35;;;;;;;;;;4982501;28;20061;-59
2022/03/14 05:09:44;;;;;;;25.63;13.60;;;;;;;;;;4981839;28;20051;-60
2022/03/14 05:12:12;;;;;;;21.50;12.88;;;;;;;;;;4980610;28;20107;-60
2022/03/14 05:14:41;;;;;;;26.58;14.30;;;;;;;;;;4982056;28;20087;-61
2022/03/14 05:17:10;;;;;;;30.58;15.43;;;;;;;;;;4982131;28;20162;-60
2022/03/14 05:19:37;;;;;;;26.38;14.38;;;;;;;;;;4981702;28;20058;-59
2022/03/14 05:22:04;;;;;;;26.92;15.48;;;;;;;;;;4982685;28;20057;-60
2022/03/14 05:24:31;;;;;;;23.45;14.02;;;;;;;;;;4981880;28;20050;-60
2022/03/14 05:26:58;;;;;;;26.35;14.50;;;;;;;;;;4981468;28;20054;-60
2022/03/14 05:29:25;;;;;;;25.73;13.90;;;;;;;;;;4981197;28;20544;-60
2022/03/14 05:31:53;;;;;;;27.58;12.88;;;;;;;;;;4980944;28;20059;-60
2022/03/14 05:34:20;;;;;;;21.98;12.45;;;;;;;;;;4980910;28;20051;-61
2022/03/14 05:36:47;;;;;;;20.60;12.52;;;;;;;;;;4981882;28;20129;-61
2022/03/14 05:39:14;;;;;;;21.38;12.70;;;;;;;;;;4981527;28;20060;-60
2022/03/14 05:41:42;;;;;;;21.45;11.52;;;;;;;;;;4981864;28;20145;-60
2022/03/14 05:44:09;;;;;;;19.80;12.40;;;;;;;;;;4982486;28;20142;-58
2022/03/14 05:46:36;;;;;;;22.10;11.13;;;;;;;;;;4982634;28;20057;-60
2022/03/14 05:49:05;;;;;;;22.77;10.48;;;;;;;;;;4983405;28;20055;-60
2022/03/14 05:51:36;;;;;;;18.67;10.13;;;;;;;;;;4982471;28;20101;-60
2022/03/14 05:54:03;;;;;;;16.00;8.48;;;;;;;;;;4982786;28;20151;-60
2022/03/14 05:56:30;;;;;;;17.70;9.82;;;;;;;;;;4983335;28;20047;-60
2022/03/14 05:58:58;;;;;;;17.17;8.48;;;;;;;;;;4983026;28;20047;-60
2022/03/14 06:01:25;;;;;;;14.20;7.50;;;;;;;;;;4982483;28;20082;-60
2022/03/14 06:03:52;;;;;;;13.35;7.25;;;;;;;;;;4981722;28;20074;-61
2022/03/14 06:06:21;;;;;;;13.90;7.72;;;;;;;;;;4981573;28;20051;-60
2022/03/14 06:08:48;;;;;;;12.65;7.32;;;;;;;;;;4982493;28;20110;-60
2022/03/14 06:11:15;;;;;;;11.98;7.40;;;;;;;;;;4982360;28;20114;-60
2022/03/14 06:13:43;;;;;;;16.90;8.25;;;;;;;;;;4982605;28;20362;-61
2022/03/14 06:16:10;;;;;;;14.75;7.75;;;;;;;;;;4983565;28;20440;-60
2022/03/14 06:18:37;;;;;;;11.65;6.50;;;;;;;;;;4983416;28;20074;-61
2022/03/14 06:21:04;;;;;;;13.50;7.47;;;;;;;;;;4983665;28;20074;-61
2022/03/14 06:23:32;;;;;;;16.60;6.88;;;;;;;;;;4983311;28;20050;-62
2022/03/14 06:25:59;;;;;;;14.70;7.07;;;;;;;;;;4983609;28;20086;-58
2022/03/14 06:28:26;;;;;;;13.80;6.93;;;;;;;;;;4983523;28;20544;-60
2022/03/14 06:30:53;;;;;;;11.15;6.55;;;;;;;;;;4982974;28;20096;-60
2022/03/14 06:33:21;;;;;;;12.85;5.88;;;;;;;;;;4983361;28;20141;-58
2022/03/14 06:35:48;;;;;;;13.25;7.07;;;;;;;;;;4983356;28;20051;-60
2022/03/14 06:38:15;;;;;;;11.98;6.35;;;;;;;;;;4983223;28;20483;-61
2022/03/14 06:40:43;;;;;;;13.45;6.53;;;;;;;;;;4983689;28;20230;-60
2022/03/14 06:43:11;;;;;;;10.20;5.13;;;;;;;;;;4983982;28;20126;-61
2022/03/14 06:45:40;;;;;;;12.52;6.25;;;;;;;;;;4983549;28;20113;-61
2022/03/14 06:48:07;;;;;;;10.75;5.43;;;;;;;;;;4985702;28;20109;-62
2022/03/14 06:50:36;;;;;;;9.35;5.68;;;;;;;;;;4985813;28;20078;-61
2022/03/14 06:53:04;;;;;;;10.73;5.68;;;;;;;;;;4986522;28;20074;-60
2022/03/14 06:55:31;;;;;;;7.38;4.95;;;;;;;;;;4986413;28;20079;-61
2022/03/14 06:57:59;;;;;;;10.10;5.40;;;;;;;;;;4985905;28;20473;-60
2022/03/14 07:00:27;;;;;;;9.55;5.32;;;;;;;;;;4986588;28;20047;-61
2022/03/14 07:02:54;;;;;;;7.20;4.55;;;;;;;;;;4985788;28;20099;-60
2022/03/14 07:05:24;;;;;;;10.40;4.88;;;;;;;;;;4986577;28;20139;-61
2022/03/14 07:07:51;;;;;;;12.40;6.82;;;;;;;;;;4985386;28;20051;-60
2022/03/14 07:10:19;;;;;;;7.38;4.03;;;;;;;;;;4985423;28;20057;-60
2022/03/14 07:12:48;;;;;;;6.65;3.83;;;;;;;;;;4984718;28;20111;-60
2022/03/14 07:15:20;;;;;;;10.15;4.00;;;;;;;;;;4985010;28;20051;-61
2022/03/14 07:17:48;;;;;;;8.07;3.65;;;;;;;;;;4983932;28;20066;-58
2022/03/14 07:20:17;;;;;;;6.32;3.30;;;;;;;;;;4984722;28;20514;-60
2022/03/14 07:22:55;;;;;;;6.80;3.03;;;;;;;;;;4985060;28;20098;-59
2022/03/14 07:25:24;;;;;;;6.55;3.50;;;;;;;;;;4985361;28;20051;-60
2022/03/14 07:27:52;;;;;;;7.57;3.40;;;;;;;;;;4985588;28;20066;-60
2022/03/14 07:30:21;;;;;;;5.07;3.10;;;;;;;;;;4985311;28;20054;-61
2022/03/14 07:32:48;;;;;;;5.68;2.67;;;;;;;;;;4985415;28;20055;-59
2022/03/14 07:35:15;;;;;;;5.78;2.88;;;;;;;;;;4984754;28;20059;-61
2022/03/14 07:37:42;;;;;;;5.93;2.58;;;;;;;;;;4984626;28;20065;-61
2022/03/14 07:40:10;;;;;;;5.97;2.58;;;;;;;;;;4985051;28;20057;-60
2022/03/14 07:42:43;;;;;;;6.43;2.85;;;;;;;;;;4984273;28;20057;-61
2022/03/14 07:45:10;;;;;;;6.20;2.42;;;;;;;;;;4984705;28;20055;-60
2022/03/14 07:47:40;;;;;;;5.18;3.03;;;;;;;;;;4984773;28;20129;-60
2022/03/14 07:50:09;;;;;;;5.70;2.90;;;;;;;;;;4984012;28;20054;-60
2022/03/14 07:52:37;;;;;;;6.15;3.03;;;;;;;;;;4984564;28;20114;-60
2022/03/14 07:55:04;;;;;;;4.80;2.40;;;;;;;;;;4984334;28;20065;-60
2022/03/14 07:57:32;;;;;;;5.80;2.60;;;;;;;;;;4984006;28;20508;-60
2022/03/14 07:59:59;;;;;;;5.60;3.03;;;;;;;;;;4984048;28;20051;-60
2022/03/14 08:02:26;;;;;;;6.15;3.10;;;;;;;;;;4984513;28;20054;-60
2022/03/14 08:04:55;;;;;;;6.05;2.97;;;;;;;;;;4984603;28;20054;-61
2022/03/14 08:07:22;;;;;;;5.50;2.67;;;;;;;;;;4981781;28;20496;-60
2022/03/14 08:09:49;;;;;;;7.22;2.97;;;;;;;;;;4981122;28;20518;-59
2022/03/14 08:12:16;;;;;;;4.63;2.58;;;;;;;;;;4982082;28;20094;-59
2022/03/14 08:14:43;;;;;;;4.85;2.38;;;;;;;;;;4981036;28;20069;-61
2022/03/14 08:17:11;;;;;;;5.18;2.40;;;;;;;;;;4981322;28;20153;-59
2022/03/14 08:19:38;;;;;;;4.22;2.05;;;;;;;;;;4981007;28;20053;-59
2022/03/14 08:22:06;;;;;;;5.00;1.80;;;;;;;;;;4981860;28;20523;-60
2022/03/14 08:24:34;;;;;;;3.20;1.70;;;;;;;;;;4981748;28;20047;-60
2022/03/14 08:27:02;;;;;;;3.75;1.30;;;;;;;;;;4981838;28;20053;-59
2022/03/14 08:29:30;;;;;;;2.92;1.25;;;;;;;;;;4981276;28;20062;-60
2022/03/14 08:31:59;;;;;;;3.67;1.30;;;;;;;;;;4980830;28;20054;-62
2022/03/14 08:34:26;;;;;;;3.55;1.23;;;;;;;;;;4981050;28;20051;-60
2022/03/14 08:36:53;;;;;;;3.13;1.23;;;;;;;;;;4981102;28;20054;-60
2022/03/14 08:39:22;;;;;;;4.20;1.13;;;;;;;;;;4981171;28;20469;-59
2022/03/14 08:41:49;;;;;;;4.22;1.50;;;;;;;;;;4980708;28;20138;-60
2022/03/14 08:44:16;;;;;;;3.53;2.17;;;;;;;;;;4981338;28;20081;-61
2022/03/14 08:46:42;;;;;;;5.97;3.00;;;;;;;;;;4981057;28;20484;-60
2022/03/14 08:49:09;;;;;;;3.47;1.60;;;;;;;;;;4980920;28;20050;-60
2022/03/14 08:51:39;;;;;;;4.55;1.63;;;;;;;;;;4980597;28;20058;-60
2022/03/14 08:54:06;;;;;;;6.63;2.42;;;;;;;;;;4980690;28;20055;-60
2022/03/14 08:56:35;;;;;;;2.72;1.25;;;;;;;;;;4979850;28;20572;-61
2022/03/14 08:59:02;;;;;;;4.90;1.60;;;;;;;;;;4980068;28;20129;-59
2022/03/14 09:01:29;;;;;;;3.50;1.50;;;;;;;;;;4980713;28;20109;-60
2022/03/14 09:03:56;;;;;;;4.32;1.60;;;;;;;;;;4981123;28;20057;-61
2022/03/14 09:06:24;;;;;;;4.53;1.83;;;;;;;;;;4980438;28;20055;-60
2022/03/14 09:08:51;;;;;;;4.53;1.40;;;;;;;;;;4980006;28;20114;-59
2022/03/14 09:11:19;;;;;;;4.95;1.80;;;;;;;;;;4980857;28;20114;-61
2022/03/14 09:13:47;;;;;;;2.63;1.45;;;;;;;;;;4980515;28;20062;-59
2022/03/14 09:16:14;;;;;;;3.00;1.38;;;;;;;;;;4980355;28;20051;-61
2022/03/14 09:18:41;;;;;;;4.10;1.70;;;;;;;;;;4979933;28;20054;-61
2022/03/14 09:21:08;;;;;;;4.60;1.67;;;;;;;;;;4980477;28;20055;-60
2022/03/14 09:23:36;;;;;;;4.38;2.03;;;;;;;;;;4980970;28;20043;-60
2022/03/14 09:26:03;;;;;;;5.78;1.42;;;;;;;;;;4980902;28;20059;-61
2022/03/14 09:28:30;;;;;;;2.67;1.40;;;;;;;;;;4981280;28;20138;-61
2022/03/14 09:30:59;;;;;;;3.50;1.60;;;;;;;;;;4980506;28;20479;-61
2022/03/14 09:33:26;;;;;;;4.03;2.42;;;;;;;;;;4980319;28;20106;-60
2022/03/14 09:35:53;;;;;;;3.80;1.60;;;;;;;;;;4980630;28;20138;-60
2022/03/14 09:38:20;;;;;;;2.65;1.30;;;;;;;;;;4980520;28;20057;-60
2022/03/14 09:40:47;;;;;;;8.93;5.07;;;;;;;;;;4981079;28;20054;-61
2022/03/14 09:43:16;;;;;;;5.25;1.98;;;;;;;;;;4979696;28;20062;-61
2022/03/14 09:45:47;;;;;;;3.58;1.45;;;;;;;;;;4979626;28;20059;-61
2022/03/14 09:48:16;;;;;;;3.22;1.50;;;;;;;;;;4979551;28;20069;-61
2022/03/14 09:50:45;;;;;;;2.90;1.30;;;;;;;;;;4979732;28;20085;-59
2022/03/14 09:53:14;;;;;;;2.28;1.20;;;;;;;;;;4979728;28;20061;-61
2022/03/14 09:55:43;;;;;;;2.42;1.30;;;;;;;;;;4979067;28;20061;-60
2022/03/14 09:58:11;;;;;;;2.33;1.17;;;;;;;;;;4979269;28;20500;-61
2022/03/14 10:00:39;;;;;;;3.58;1.40;;;;;;;;;;4979484;28;20065;-61
2022/03/14 10:03:06;;;;;;;3.33;1.33;;;;;;;;;;4979379;28;20458;-61
2022/03/14 10:05:34;;;;;;;2.47;1.30;;;;;;;;;;4979982;28;20053;-60
2022/03/14 10:08:02;;;;;;;3.38;1.20;;;;;;;;;;4979946;28;20051;-60
2022/03/14 10:10:29;;;;;;;3.70;1.30;;;;;;;;;;4979424;28;20133;-63
2022/03/14 10:12:57;;;;;;;3.50;1.60;;;;;;;;;;4978442;28;20279;-60
2022/03/14 10:15:26;;;;;;;4.05;2.30;;;;;;;;;;4978265;28;20058;-64
2022/03/14 10:17:54;;;;;;;2.95;1.50;;;;;;;;;;4979148;28;20066;-61
2022/03/14 10:20:22;;;;;;;4.35;1.20;;;;;;;;;;4979409;28;20141;-62
2022/03/14 10:22:51;;;;;;;2.83;1.20;;;;;;;;;;4983031;28;20130;-60
2022/03/14 10:25:20;;;;;;;2.78;1.25;;;;;;;;;;4984350;28;20488;-60
2022/03/14 10:27:49;;;;;;;2.70;1.42;;;;;;;;;;4983520;28;20061;-62
2022/03/14 10:30:26;;;;;;;2.65;1.30;;;;;;;;;;4984530;28;20062;-61
2022/03/14 10:33:01;;;;;;;5.10;1.70;;;;;;;;;;4984011;28;20559;-60
2022/03/14 10:35:34;;;;;;;3.00;0.90;;;;;;;;;;4984902;28;20047;-61
2022/03/14 10:38:06;;;;;;;4.53;1.45;;;;;;;;;;4983863;28;20087;-61
2022/03/14 10:40:34;;;;;;;2.40;1.08;;;;;;;;;;4983253;28;20046;-61
2022/03/14 10:43:01;;;;;;;5.15;1.17;;;;;;;;;;4983088;28;20051;-61
2022/03/14 10:45:32;;;;;;;2.33;1.27;;;;;;;;;;4982132;28;20057;-60
2022/03/14 10:48:02;;;;;;;3.83;1.25;;;;;;;;;;4982774;28;20051;-61
2022/03/14 10:50:34;;;;;;;4.43;1.60;;;;;;;;;;4983370;28;20050;-60
2022/03/14 10:53:05;;;;;;;3.95;1.67;;;;;;;;;;4982678;28;20078;-60
2022/03/14 10:55:38;;;;;;;3.97;1.60;;;;;;;;;;4982925;28;20146;-60
2022/03/14 10:58:12;;;;;;;3.55;1.60;;;;;;;;;;4983707;28;20050;-61
2022/03/14 11:00:53;;;;;;;3.70;1.85;;;;;;;;;;4983913;28;20055;-60
2022/03/14 11:03:27;;;;;;;4.03;1.90;;;;;;;;;;4983301;28;20055;-61
2022/03/14 11:05:58;;;;;;;4.32;1.75;;;;;;;;;;4982625;28;20065;-61
2022/03/14 11:08:45;;;;;;;3.75;1.77;;;;;;;;;;4982428;28;20093;-60
2022/03/14 11:11:14;;;;;;;2.97;1.60;;;;;;;;;;4982339;28;20061;-61
2022/03/14 11:13:42;;;;;;;4.13;1.90;;;;;;;;;;4979781;28;20062;-65
2022/03/14 11:16:13;;;;;;;4.35;1.73;;;;;;;;;;4979317;28;20332;-63
2022/03/14 11:18:42;;;;;;;3.88;1.63;;;;;;;;;;4978310;28;20500;-63
2022/03/14 11:21:10;;;;;;;4.22;1.90;;;;;;;;;;4978445;28;20348;-64
2022/03/14 11:23:38;;;;;;;4.38;2.03;;;;;;;;;;4981786;28;20051;-60
2022/03/14 11:26:10;;;;;;;5.07;1.60;;;;;;;;;;4982974;28;20051;-60
2022/03/14 11:28:39;;;;;;;4.10;1.70;;;;;;;;;;4982958;28;20050;-60
2022/03/14 11:31:06;;;;;;;2.83;1.60;;;;;;;;;;4983542;28;20077;-61
2022/03/14 11:33:35;;;;;;;4.30;1.70;;;;;;;;;;4982340;28;20055;-61
2022/03/14 11:36:03;;;;;;;3.10;1.70;;;;;;;;;;4983285;28;20055;-61
2022/03/14 11:38:31;;;;;;;5.53;1.92;;;;;;;;;;4982153;28;20061;-61
2022/03/14 11:40:59;;;;;;;3.15;1.70;;;;;;;;;;4982459;28;20085;-61
2022/03/14 11:43:28;;;;;;;4.03;1.90;;;;;;;;;;4982068;28;20054;-60
2022/03/14 11:45:59;;;;;;;5.40;1.75;;;;;;;;;;4982012;28;20046;-62
2022/03/14 11:48:30;;;;;;;3.13;1.58;;;;;;;;;;4981600;28;20500;-59
2022/03/14 11:50:59;;;;;;;4.80;1.77;;;;;;;;;;4981147;28;20138;-60
2022/03/14 11:53:28;;;;;;;2.45;1.40;;;;;;;;;;4981152;28;20047;-60
2022/03/14 11:55:57;;;;;;;3.15;1.75;;;;;;;;;;4981854;28;20065;-60
2022/03/14 11:58:37;;;;;;;4.28;2.03;;;;;;;;;;4981697;28;20054;-60
2022/03/14 12:01:20;;;;;;;;;;;;;;;;;;4982698;28;20064;-60
2022/03/14 12:03:49;;;;;;;3.05;1.77;;;;;;;;;;4980810;28;20366;-60
2022/03/14 12:06:16;;;;;;;3.25;1.65;;;;;;;;;;4981013;28;20483;-61
2022/03/14 12:09:01;;;;;;;3.17;1.77;;;;;;;;;;4981014;28;20046;-60
2022/03/14 12:11:35;;;;;;;3.63;1.38;;;;;;;;;;4981920;28;20055;-61
2022/03/14 12:14:04;;;;;;;3.03;1.60;;;;;;;;;;4981202;28;20047;-60
2022/03/14 12:16:38;;;;;;;2.72;1.40;;;;;;;;;;4981047;28;20043;-60
2022/03/14 12:19:33;;;;;;;3.20;1.35;;;;;;;;;;4980542;28;20105;-61
2022/03/14 12:22:02;;;;;;;4.45;1.50;;;;;;;;;;4980772;28;20138;-60
2022/03/14 12:24:49;;;;;;;3.92;1.67;;;;;;;;;;4981664;28;20077;-60
2022/03/14 12:27:21;;;;;;;3.00;1.70;;;;;;;;;;4981917;28;20446;-60
2022/03/14 12:29:50;;;;;;;2.78;1.48;;;;;;;;;;4981804;28;20267;-60
2022/03/14 12:32:34;;;;;;;2.97;1.40;;;;;;;;;;4981057;28;20047;-60
2022/03/14 12:35:12;;;;;;;2.53;1.40;;;;;;;;;;4982340;28;20487;-60
2022/03/14 12:37:42;;;;;;;2.58;1.58;;;;;;;;;;4978655;28;20046;-62
2022/03/14 12:40:14;;;;;;;5.18;1.83;;;;;;;;;;4977051;28;20051;-61
2022/03/14 12:42:43;;;;;;;2.80;1.60;;;;;;;;;;4976241;28;20081;-61
2022/03/14 12:45:22;;;;;;;4.05;1.65;;;;;;;;;;4976390;28;20054;-61
2022/03/14 12:47:52;;;;;;;3.28;1.40;;;;;;;;;;4976698;28;20054;-62
2022/03/14 12:50:56;;;;;;;4.50;1.73;;;;;;;;;;4976857;28;20054;-62
2022/03/14 12:53:46;;;;;;;4.30;2.10;;;;;;;;;;4977220;28;20057;-62
2022/03/14 12:56:15;;;;;;;3.37;1.90;;;;;;;;;;4977244;28;20059;-62
2022/03/14 12:58:55;;;;;;;4.10;1.80;;;;;;;;;;4978017;28;20055;-61
2022/03/14 13:01:24;;;;;;;3.45;1.65;;;;;;;;;;4977599;28;20058;-62
2022/03/14 13:04:02;;;;;;;4.30;2.40;;;;;;;;;;4977700;28;20047;-62
2022/03/14 13:06:34;;;;;;;3.60;1.92;;;;;;;;;;4977574;28;20050;-62
2022/03/14 13:09:03;;;;;;;4.55;2.03;;;;;;;;;;4977707;28;20051;-62
2022/03/14 13:11:41;;;;;;;4.07;2.28;;;;;;;;;;4979508;28;20054;-62
2022/03/14 13:14:12;;;;;;;2.97;1.48;;;;;;;;;;4981519;28;20073;-62
2022/03/14 13:16:41;;;;;;;3.25;1.77;;;;;;;;;;4980956;28;20047;-62
2022/03/14 13:19:17;;;;;;;4.15;1.60;;;;;;;;;;4979616;28;20076;-61
2022/03/14 13:21:45;;;;;;;4.75;2.13;;;;;;;;;;4978762;28;20110;-61
2022/03/14 13:24:12;;;;;;;3.28;1.90;;;;;;;;;;4977770;28;20054;-61
2022/03/14 13:26:42;;;;;;;4.07;1.95;;;;;;;;;;4978785;28;20551;-62
2022/03/14 13:29:10;;;;;;;4.53;2.20;;;;;;;;;;4977222;28;20231;-62
2022/03/14 13:31:38;;;;;;;4.35;2.20;;;;;;;;;;4977908;28;20086;-62
2022/03/14 13:34:08;;;;;;;3.28;1.95;;;;;;;;;;4977277;28;20057;-63
2022/03/14 13:36:38;;;;;;;3.42;2.00;;;;;;;;;;4977619;28;20122;-63
2022/03/14 13:39:07;;;;;;;4.55;2.03;;;;;;;;;;4977055;28;20047;-61
2022/03/14 13:41:35;;;;;;;6.90;4.15;;;;;;;;;;4977080;28;20057;-61
2022/03/14 13:44:04;;;;;;;4.32;2.22;;;;;;;;;;4976877;28;20057;-60
2022/03/14 13:46:33;;;;;;;5.25;1.95;;;;;;;;;;4976763;28;20047;-61
2022/03/14 13:49:04;;;;;;;3.88;2.10;;;;;;;;;;4975855;28;20121;-62
2022/03/14 13:51:37;;;;;;;4.22;2.30;;;;;;;;;;4976558;28;20066;-62
2022/03/14 13:54:09;;;;;;;3.67;2.00;;;;;;;;;;4976910;28;20090;-62
2022/03/14 13:56:40;;;;;;;4.18;2.10;;;;;;;;;;4981241;28;20065;-63
2022/03/14 13:59:09;;;;;;;;;;;;;;;;;;4981936;28;20050;-62
2022/03/14 14:01:45;;;;;;;4.00;2.10;;;;;;;;;;4982136;28;19922;-63
2022/03/14 14:04:17;;;;;;;6.20;2.67;;;;;;;;;;4981652;28;20051;-63
2022/03/14 14:06:54;;;;;;;4.97;2.63;;;;;;;;;;4981522;28;20117;-63
2022/03/14 14:09:26;;;;;;;4.97;2.33;;;;;;;;;;4981423;28;20058;-61
2022/03/14 14:11:58;;;;;;;4.18;2.17;;;;;;;;;;4981574;28;20125;-61
2022/03/14 14:14:26;;;;;;;5.20;2.40;;;;;;;;;;4981204;28;20043;-62
2022/03/14 14:16:53;;;;;;;4.25;2.45;;;;;;;;;;4980062;28;20093;-62
2022/03/14 14:19:22;;;;;;;4.63;1.92;;;;;;;;;;4980824;28;20051;-62
2022/03/14 14:21:57;;;;;;;3.50;2.03;;;;;;;;;;4981551;28;20086;-62
2022/03/14 14:24:25;;;;;;;3.80;1.92;;;;;;;;;;4981012;28;20062;-62
2022/03/14 14:26:52;;;;;;;4.40;2.55;;;;;;;;;;4980030;28;20507;-62
2022/03/14 14:29:44;;;;;;;3.78;2.25;;;;;;;;;;4980070;28;20057;-62
2022/03/14 14:32:15;;;;;;;4.28;2.55;;;;;;;;;;4979800;28;20316;-62
2022/03/14 14:34:42;;;;;;;4.10;1.90;;;;;;;;;;4980099;28;20053;-62
2022/03/14 14:37:14;;;;;;;5.07;2.30;;;;;;;;;;4980391;28;20381;-62
2022/03/14 14:39:42;;;;;;;5.60;2.10;;;;;;;;;;4980852;28;20054;-62
2022/03/14 14:42:11;;;;;;;3.80;2.40;;;;;;;;;;4981120;28;20078;-61
2022/03/14 14:44:38;;;;;;;3.45;2.10;;;;;;;;;;4980455;28;20145;-62
2022/03/14 14:47:07;;;;;;;4.97;2.28;;;;;;;;;;4979606;28;20061;-62